Latest Weather Observations for Marble Bar

IDW60801

Issued at 3:32 pm WST Tuesday 31 May 2016 (issued every 30 minutes, with the page automatically refreshed every 10 minutes)

About weather observations | Map of weather stations | Latest weather observations for WA | Other Formats
Station Details ID: 004106 Name: MARBLE BAR Lat: -21.18 Lon: 119.75 Height: 182.3 m
Data from the previous 72 hours. | See also: Recent months at Marble Bar
Date/Time
WST
Temp
°C
App
Temp
°C
Dew
Point
Rel
Hum
%
Delta-T
°C
Wind Press
QNH
hPa
Press
MSL
hPa
Rain
since 9 am
mm
Dir
 
Spd
km/h
Gust
km/h
Spd
kts
Gust
kts
31/03:30pm 31.9 30.3 12.7 31 11.5 NW 13 20 7 11 1012.5 1011.6 0.0
31/03:00pm 31.9 29.6 11.7 29 11.9 NW 15 28 8 15 1012.7 1011.8 0.0
31/02:30pm 31.7 29.7 11.5 29 11.9 NNW 13 20 7 11 1012.5 1011.6 0.0
31/02:00pm 31.7 29.2 11.0 28 12.1 NNW 15 24 8 13 1012.6 1011.7 0.0
31/01:30pm 31.3 28.3 10.6 28 12.0 NNW 17 24 9 13 1013.0 1012.1 0.0
31/01:00pm 31.4 28.9 11.2 29 11.8 N 15 30 8 16 1013.4 1012.5 0.0
31/12:30pm 30.7 28.4 10.6 29 11.6 N 13 19 7 10 1013.7 1012.8 0.0
31/12:00pm 30.6 28.9 11.1 30 11.3 NNW 11 22 6 12 1014.4 1013.6 0.0
31/11:30am 30.1 28.8 11.1 31 11.0 N 9 19 5 10 1014.7 1013.9 0.0
31/11:00am 29.3 28.9 12.3 35 10.0 N 6 11 3 6 1015.2 1014.4 0.0
31/10:30am 28.6 28.1 12.5 37 9.5 N 7 13 4 7 1015.4 1014.6 0.0
31/10:00am 27.5 27.1 13.1 41 8.5 NNW 7 13 4 7 1015.8 1015.0 0.0
31/09:30am 26.9 26.8 12.2 40 8.6 NNW 4 7 2 4 1016.0 1015.2 0.0
31/09:00am 25.7 25.9 14.2 49 6.9 N 6 9 3 5 1016.0 1015.2 0.0
31/08:30am 24.5 25.5 15.4 57 5.5 ESE 4 6 2 3 1015.8 1015.0 0.0
31/08:00am 22.1 23.7 15.0 64 4.2 CALM 0 6 0 3 1015.5 1014.7 0.0
31/07:30am 20.4 21.9 14.7 70 3.4 CALM 0 0 0 0 1015.5 1014.7 0.0
31/07:00am 18.3 19.4 13.6 74 2.7 CALM 0 0 0 0 1015.1 1014.3 0.0
31/06:30am 18.3 18.6 14.4 78 2.3 E 6 7 3 4 1014.8 1014.0 0.0
31/06:00am 18.0 18.4 13.7 76 2.5 ENE 4 6 2 3 1014.5 1013.7 0.0
31/05:30am 18.2 19.2 13.3 73 2.8 CALM 0 0 0 0 1013.9 1013.0 0.0
31/05:00am 18.2 19.1 12.9 71 3.0 CALM 0 0 0 0 1013.7 1012.8 0.0
31/04:30am 18.7 19.5 13.6 72 2.9 SSE 2 2 1 1 1013.6 1012.7 0.0
31/04:00am 18.7 18.9 13.1 70 3.2 S 4 6 2 3 1013.7 1012.8 0.0
31/03:30am 19.4 20.5 13.6 69 3.3 CALM 0 4 0 2 1013.8 1012.9 0.0
31/03:00am 19.6 20.7 13.5 68 3.5 CALM 0 4 0 2 1013.9 1013.0 0.0
31/02:30am 20.8 21.7 14.0 65 4.0 SSE 2 6 1 3 1013.9 1013.0 0.0
31/02:00am 21.7 23.2 14.6 64 4.2 CALM 0 0 0 0 1014.0 1013.2 0.0
31/01:30am 21.0 22.2 14.9 68 3.6 WNW 2 4 1 2 1014.2 1013.4 0.0
31/01:00am 21.5 23.2 15.3 68 3.7 CALM 0 0 0 0 1014.3 1013.5 0.0
31/12:30am 21.9 23.3 15.3 66 4.0 N 2 4 1 2 1014.4 1013.6 0.0
31/12:00am 22.3 23.8 15.6 66 4.0 N 2 4 1 2 1014.6 1013.8 0.0
 
Date/Time
WST
Temp
°C
App
Temp
°C
Dew
Point
Rel
Hum
%
Delta-T
°C
Wind Press
QNH
hPa
Press
MSL
hPa
Rain
since 9 am
mm
Dir
 
Spd
km/h
Gust
km/h
Spd
kts
Gust
kts
30/11:30pm 23.2 24.4 15.8 63 4.5 NNW 4 7 2 4 1014.6 1013.8 0.0
30/11:00pm 23.6 24.3 15.6 61 4.9 N 6 7 3 4 1014.7 1013.9 0.0
30/10:30pm 24.0 25.5 15.8 60 5.0 NW 2 4 1 2 1014.6 1013.8 0.0
30/10:00pm 24.7 25.3 15.9 58 5.4 NNW 7 9 4 5 1014.7 1013.9 0.0
30/09:30pm 25.5 26.2 16.1 56 5.8 NW 7 9 4 5 1014.8 1014.0 0.0
30/09:00pm 25.5 26.7 15.8 55 5.9 NNW 4 7 2 4 1015.0 1014.2 0.0
30/08:30pm 26.1 26.5 15.2 51 6.6 NNW 7 13 4 7 1014.3 1013.5 0.0
30/08:00pm 26.7 26.9 14.8 48 7.2 NW 7 11 4 6 1014.2 1013.4 0.0
30/07:30pm 27.3 27.0 14.3 45 7.8 NW 9 13 5 7 1014.2 1013.4 0.0
30/07:00pm 28.1 26.1 14.0 42 8.5 NW 17 22 9 12 1013.6 1012.7 0.0
30/06:30pm 28.8 27.8 12.2 35 9.7 NNW 9 17 5 9 1013.1 1012.2 0.0
30/06:00pm 29.1 27.8 7.7 26 11.7 NW 4 6 2 3 1012.7 1011.8 0.0
30/05:30pm 29.7 28.4 7.6 25 12.1 NW 4 6 2 3 1012.4 1011.5 0.0
30/05:00pm 30.4 28.6 7.0 23 12.7 NW 6 7 3 4 1012.2 1011.3 0.0
30/04:30pm 31.6 29.1 6.6 21 13.6 NW 9 15 5 8 1011.8 1011.0 0.0
30/04:00pm 31.4 29.1 5.8 20 13.7 NW 7 15 4 8 1011.7 1010.9 0.0
30/03:30pm 31.2 28.6 6.3 21 13.4 WNW 9 13 5 7 1011.6 1010.8 0.0
30/03:00pm 31.3 28.6 5.7 20 13.7 NW 9 13 5 7 1011.5 1010.7 0.0
30/02:30pm 31.4 28.7 5.8 20 13.7 NW 9 19 5 10 1011.6 1010.8 0.0
30/02:00pm 31.6 29.0 5.9 20 13.8 WNW 9 13 5 7 1011.6 1010.8 0.0
30/01:30pm 31.5 27.9 5.1 19 14.0 NW 13 19 7 10 1011.6 1010.8 0.0
30/01:00pm 31.5 27.9 2.7 16 14.7 W 11 17 6 9 1012.0 1011.1 0.0
30/12:30pm 31.2 27.7 1.5 15 14.8 NW 9 17 5 9 1012.4 1011.5 0.0
30/12:00pm 31.5 27.4 -0.2 13 15.4 NW 11 17 6 9 1012.9 1012.0 0.0
30/11:30am 30.8 29.0 5.3 20 13.5 N 4 11 2 6 1013.2 1012.3 0.0
30/11:00am 29.7 28.8 9.3 28 11.5 SW 4 6 2 3 1013.5 1012.6 0.0
30/10:30am 28.8 27.6 9.5 30 10.8 NNW 6 9 3 5 1014.0 1013.2 0.0
30/10:00am 27.6 27.7 11.6 37 9.2 ESE 2 6 1 3 1014.2 1013.4 0.0
30/09:30am 26.3 26.0 12.7 43 8.0 ESE 6 7 3 4 1014.5 1013.7 0.0
30/09:00am 24.6 26.0 15.5 57 5.5 ESE 2 4 1 2 1014.7 1013.9 0.0
30/08:30am 24.2 25.9 16.2 61 4.9 E 2 4 1 2 1014.5 1013.7 0.0
30/08:00am 22.1 24.3 16.4 70 3.5 CALM 0 0 0 0 1014.3 1013.5 0.0
30/07:30am 20.3 22.2 15.7 75 2.8 CALM 0 0 0 0 1014.0 1013.2 0.0
30/07:00am 18.6 19.9 14.1 75 2.6 CALM 0 0 0 0 1013.9 1013.0 0.0
30/06:30am 18.1 19.4 14.0 77 2.4 CALM 0 0 0 0 1013.6 1012.7 0.0
30/06:00am 18.4 19.7 14.1 76 2.5 CALM 0 0 0 0 1013.2 1012.3 0.0
30/05:30am 19.1 20.7 15.0 77 2.4 CALM 0 0 0 0 1013.0 1012.1 0.0
30/05:00am 19.3 21.1 15.4 78 2.3 CALM 0 2 0 1 1012.9 1012.0 0.0
30/04:30am 19.7 21.3 14.9 74 2.8 CALM 0 0 0 0 1012.9 1012.0 0.0
30/04:00am 20.4 21.2 15.8 75 2.8 SE 6 7 3 4 1012.8 1011.9 0.0
30/03:30am 19.9 21.1 14.9 73 3.0 SE 2 4 1 2 1012.8 1011.9 0.0
30/03:00am 20.0 21.3 14.1 69 3.4 CALM 0 0 0 0 1012.9 1012.0 0.0
30/02:30am 20.2 21.1 13.9 67 3.7 S 2 4 1 2 1013.0 1012.1 0.0
30/02:00am 20.7 22.0 14.1 66 3.9 CALM 0 0 0 0 1013.1 1012.2 0.0
30/01:30am 21.2 22.7 14.6 66 3.9 CALM 0 0 0 0 1013.1 1012.2 0.0
30/01:00am 21.6 23.1 14.7 65 4.1 CALM 0 0 0 0 1013.3 1012.4 0.0
30/12:30am 22.1 23.4 14.2 61 4.7 CALM 0 0 0 0 1013.5 1012.6 0.0
30/12:00am 22.7 24.1 14.5 60 4.9 CALM 0 0 0 0 1013.7 1012.8 0.0
 
Date/Time
WST
Temp
°C
App
Temp
°C
Dew
Point
Rel
Hum
%
Delta-T
°C
Wind Press
QNH
hPa
Press
MSL
hPa
Rain
since 9 am
mm
Dir
 
Spd
km/h
Gust
km/h
Spd
kts
Gust
kts
29/11:30pm 23.6 24.3 14.6 57 5.4 N 4 6 2 3 1013.9 1013.0 0.0
29/11:00pm 23.9 25.0 14.6 56 5.6 NNW 2 4 1 2 1014.1 1013.3 0.0
29/10:30pm 24.5 25.2 14.6 54 5.9 N 4 6 2 3 1014.2 1013.4 0.0
29/10:00pm 25.1 25.4 15.1 53 6.1 N 7 9 4 5 1014.1 1013.3 0.0
29/09:30pm 25.5 26.4 16.1 56 5.8 N 6 13 3 7 1013.9 1013.0 0.0
29/09:00pm 25.7 26.8 16.5 56 5.7 NNW 6 9 3 5 1013.9 1013.0 0.0
29/08:30pm 26.2 26.9 17.0 57 5.8 NW 9 17 5 9 1013.8 1012.9 0.0
29/08:00pm 26.6 26.1 16.8 55 6.1 NNW 15 24 8 13 1013.5 1012.6 0.0
29/07:30pm 27.2 26.3 16.8 53 6.5 NNW 17 26 9 14 1013.3 1012.4 0.0
29/07:00pm 27.7 27.2 16.9 51 6.8 N 15 24 8 13 1013.1 1012.2 0.0
29/06:30pm 28.3 26.6 16.2 47 7.5 N 20 32 11 17 1012.7 1011.8 0.0
29/06:00pm 29.1 29.0 13.3 37 9.5 N 6 7 3 4 1012.4 1011.5 0.0
29/05:30pm 30.0 29.8 12.9 35 10.2 NNW 6 9 3 5 1012.0 1011.1 0.0
29/05:00pm 30.8 30.3 12.2 32 11.0 NNW 6 9 3 5 1011.7 1010.9 0.0
29/04:30pm 31.8 31.8 13.5 32 11.1 N 6 13 3 7 1011.3 1010.5 0.0
29/04:00pm 31.2 30.6 13.5 34 10.7 NW 9 15 5 8 1011.2 1010.4 0.0
29/03:30pm 30.9 30.9 14.1 36 10.2 NW 7 13 4 7 1011.2 1010.4 0.0
29/03:00pm 31.6 30.9 14.3 35 10.6 WNW 11 17 6 9 1011.2 1010.4 0.0
29/02:30pm 32.3 31.5 14.0 33 11.2 NNW 11 19 6 10 1011.2 1010.4 0.0
29/02:00pm 31.4 31.4 14.1 35 10.6 NNW 7 15 4 8 1011.4 1010.6 0.0
29/01:30pm 32.3 32.8 14.9 35 10.8 NW 6 13 3 7 1011.8 1011.0 0.0
29/01:00pm 31.4 31.9 15.0 37 10.2 NNW 6 13 3 7 1012.3 1011.4 0.0
29/12:30pm 31.4 31.7 15.0 37 10.2 WNW 7 15 4 8 1012.8 1011.9 0.0
29/12:00pm 30.4 31.2 16.4 43 8.8 NW 7 13 4 7 1013.4 1012.5 0.0
29/11:30am 29.6 30.8 16.8 46 8.1 WSW 6 9 3 5 1014.0 1013.2 0.0
29/11:00am 29.0 30.7 17.2 49 7.5 S 4 6 2 3 1014.5 1013.7 0.0
29/10:30am 28.3 30.1 17.5 52 6.9 WNW 4 9 2 5 1014.7 1013.9 0.0
29/10:00am 26.8 28.9 18.1 59 5.5 SW 4 7 2 4 1014.9 1014.1 0.0
29/09:30am 26.4 28.8 18.8 63 4.9 ENE 4 7 2 4 1015.0 1014.2 0.0
29/09:00am 25.6 27.9 19.5 69 4.0 N 6 7 3 4 1015.2 1014.4 0.0
29/08:30am 25.0 28.7 20.0 74 3.3 CALM 0 4 0 2 1015.2 1014.4 0.0
29/08:00am 23.8 27.5 19.9 79 2.5 CALM 0 0 0 0 1015.0 1014.2 0.0
29/07:30am 22.9 25.7 19.7 82 2.1 E 4 6 2 3 1014.9 1014.1 0.0
29/07:00am 21.3 24.2 19.0 87 1.5 ESE 2 6 1 3 1014.7 1013.9 0.0
29/06:30am 20.1 22.6 18.1 88 1.2 E 2 4 1 2 1014.6 1013.8 0.0
29/06:00am 20.0 22.7 17.8 87 1.4 CALM 0 6 0 3 1014.2 1013.4 0.0
29/05:30am 20.8 23.9 18.7 88 1.3 CALM 0 0 0 0 1013.8 1012.9 0.0
29/05:00am 20.6 23.3 17.8 84 1.7 CALM 0 0 0 0 1013.8 1012.9 0.0
29/04:30am 20.8 23.4 17.6 82 2.0 CALM 0 0 0 0 1013.7 1012.8 0.0
29/04:00am 20.4 23.0 17.4 83 1.9 CALM 0 0 0 0 1013.5 1012.6 0.0
29/03:30am 20.8 23.6 18.0 84 1.7 CALM 0 0 0 0 1013.5 1012.6 0.0
29/03:00am 21.7 24.1 18.9 84 1.8 NNW 4 7 2 4 1013.5 1012.6 0.0
29/02:30am 21.9 24.6 18.7 82 2.0 NNW 2 6 1 3 1013.5 1012.6 0.0
29/02:00am 22.7 24.9 19.3 81 2.2 NW 6 6 3 3 1013.6 1012.7 0.0
29/01:30am 22.9 25.4 19.1 79 2.4 W 4 6 2 3 1013.8 1012.9 0.0
29/01:00am 23.2 26.3 19.4 79 2.4 NW 2 7 1 4 1014.1 1013.3 0.0
29/12:30am 23.3 24.8 19.7 80 2.3 WNW 11 17 6 9 1014.0 1013.2 0.0
29/12:00am 23.4 24.9 18.9 76 2.9 NW 9 15 5 8 1014.0 1013.2 0.0
 
Date/Time
WST
Temp
°C
App
Temp
°C
Dew
Point
Rel
Hum
%
Delta-T
°C
Wind Press
QNH
hPa
Press
MSL
hPa
Rain
since 9 am
mm
Dir
 
Spd
km/h
Gust
km/h
Spd
kts
Gust
kts
28/11:30pm 23.7 24.5 17.4 68 3.9 WNW 9 15 5 8 1014.1 1013.3 0.0
28/11:00pm 23.9 24.8 16.2 62 4.7 NNW 6 9 3 5 1014.1 1013.3 0.0
28/10:30pm 24.6 25.2 15.2 55 5.7 NNE 6 9 3 5 1014.1 1013.3 0.0
28/10:00pm 25.4 25.2 14.8 52 6.4 NNW 9 13 5 7 1013.8 1012.9 0.0
28/09:30pm 25.5 25.1 14.0 49 6.9 N 9 11 5 6 1013.7 1012.8 0.0
28/09:00pm 26.9 26.5 14.0 45 7.7 NW 9 13 5 7 1013.8 1012.9 0.0
28/08:30pm 27.4 26.5 13.7 43 8.2 NW 11 17 6 9 1013.7 1012.8 0.0
28/08:00pm 28.0 26.5 13.1 39 8.8 NNW 13 19 7 10 1013.5 1012.6 0.0
28/07:30pm 28.5 26.8 12.4 37 9.5 NW 13 19 7 10 1013.3 1012.4 0.0
28/07:00pm 29.0 27.3 12.4 36 9.8 NW 13 20 7 11 1013.2 1012.3 0.0
28/06:30pm 29.5 27.8 12.4 35 10.1 NW 13 22 7 12 1012.8 1011.9 0.0
28/06:00pm 30.0 28.2 12.0 33 10.6 NW 13 17 7 9 1012.4 1011.5 0.0
28/05:30pm 30.8 28.5 11.7 31 11.2 NW 15 24 8 13 1012.1 1011.2 0.0
28/05:00pm 31.5 30.1 13.3 33 11.0 WNW 13 20 7 11 1011.7 1010.9 0.0
28/04:30pm 32.0 29.6 12.8 31 11.5 NW 17 24 9 13 1011.5 1010.7 0.0
28/04:00pm 32.2 29.5 12.9 31 11.6 NW 19 30 10 16 1011.5 1010.7 0.0

Other Formats:

Comma delimited format used in spreadsheet applications
http://www.bom.gov.au/fwo/IDW60801/IDW60801.95317.axf

JavaScript Object Notation format (JSON) in row-major order
http://www.bom.gov.au/fwo/IDW60801/IDW60801.95317.json